Time;durP1;ratioP1;P1;durP2;ratioP2;P2;SDS_P1;SDS_P2;PMS_P1;PMS_P2;Temp;Humidity;BMP_temperature;BMP_pressure;BME280_temperature;BME280_humidity;BME280_pressure;Samples;Min_cycle;Max_cycle;Signal;HPM_P1;HPM_P2
2023/03/17 00:00:18;;;;;;;5.32;1.75;;;8.00;99.90;;;;;;5026782;28;20042;-68
2023/03/17 00:02:47;;;;;;;2.50;1.27;;;8.10;99.90;;;;;;5021835;28;20389;-68
2023/03/17 00:05:19;;;;;;;3.38;1.45;;;8.10;99.90;;;;;;5009842;28;20097;-68
2023/03/17 00:07:46;;;;;;;2.80;1.13;;;8.10;99.90;;;;;;5021924;28;20077;-68
2023/03/17 00:10:25;;;;;;;2.33;1.13;;;8.10;99.90;;;;;;5025502;28;20087;-68
2023/03/17 00:12:54;;;;;;;3.88;1.50;;;8.10;99.90;;;;;;5011249;28;20029;-68
2023/03/17 00:15:25;;;;;;;4.28;1.38;;;8.00;99.90;;;;;;4992538;28;20042;-68
2023/03/17 00:17:54;;;;;;;3.05;1.48;;;8.00;99.90;;;;;;5022520;28;20046;-68
2023/03/17 00:20:31;;;;;;;2.97;1.30;;;7.90;99.90;;;;;;4992125;28;20121;-68
2023/03/17 00:22:59;;;;;;;3.40;1.98;;;7.90;99.90;;;;;;4993857;28;20022;-68
2023/03/17 00:25:30;;;;;;;3.70;1.83;;;7.80;99.90;;;;;;4989765;28;20138;-68
2023/03/17 00:27:59;;;;;;;2.50;1.48;;;7.80;99.90;;;;;;5005021;28;20397;-68
2023/03/17 00:30:26;;;;;;;2.35;0.88;;;7.80;99.90;;;;;;5004289;28;20066;-69
2023/03/17 00:32:55;;;;;;;2.35;1.48;;;7.80;99.90;;;;;;5022191;28;20037;-68
2023/03/17 00:35:28;;;;;;;2.50;1.38;;;7.90;99.90;;;;;;5008244;28;20034;-68
2023/03/17 00:37:56;;;;;;;2.25;1.30;;;7.90;99.90;;;;;;5011428;28;20093;-68
2023/03/17 00:40:29;;;;;;;3.03;1.45;;;8.00;99.90;;;;;;4993464;28;20506;-69
2023/03/17 00:42:56;;;;;;;2.20;1.20;;;8.00;99.90;;;;;;4998030;28;20034;-68
2023/03/17 00:45:24;;;;;;;9.30;1.73;;;8.00;99.90;;;;;;4977118;28;20030;-68
2023/03/17 00:47:54;;;;;;;5.40;2.08;;;8.00;99.90;;;;;;4997348;28;20084;-68
2023/03/17 00:50:25;;;;;;;3.90;1.98;;;8.00;99.90;;;;;;4997287;28;20025;-69
2023/03/17 00:52:54;;;;;;;2.93;1.73;;;8.00;99.90;;;;;;5014718;28;20436;-69
2023/03/17 00:55:22;;;;;;;4.97;1.83;;;8.00;99.90;;;;;;4980471;28;20144;-68
2023/03/17 00:57:49;;;;;;;2.28;1.00;;;8.00;99.90;;;;;;5008497;28;20037;-68
2023/03/17 01:00:26;;;;;;;1.38;0.93;;;8.00;99.90;;;;;;5012609;28;20065;-68
2023/03/17 01:02:54;;;;;;;3.05;1.55;;;8.00;99.90;;;;;;5014778;28;20018;-69
2023/03/17 01:05:23;;;;;;;3.00;1.60;;;8.00;99.90;;;;;;5010844;28;20038;-69
2023/03/17 01:07:53;;;;;;;2.03;1.15;;;7.90;99.90;;;;;;5025440;28;20485;-69
2023/03/17 01:10:26;;;;;;;4.43;1.93;;;7.90;99.90;;;;;;5029971;28;20034;-68
2023/03/17 01:12:54;;;;;;;5.03;1.80;;;7.80;99.90;;;;;;4997026;28;20385;-69
2023/03/17 01:15:21;;;;;;;2.33;1.30;;;7.70;99.90;;;;;;4993262;28;20037;-68
2023/03/17 01:17:49;;;;;;;1.95;1.20;;;7.50;99.90;;;;;;5007808;28;20116;-68
2023/03/17 01:20:26;;;;;;;3.88;1.83;;;7.10;99.90;;;;;;5029961;28;20029;-68
2023/03/17 01:22:53;;;;;;;2.20;1.10;;;7.10;99.90;;;;;;4997077;28;20018;-68
2023/03/17 01:25:20;;;;;;;3.38;1.45;;;7.00;99.90;;;;;;5013512;28;20030;-68
2023/03/17 01:27:47;;;;;;;5.43;1.40;;;7.00;99.90;;;;;;5025065;28;20029;-68
2023/03/17 01:30:19;;;;;;;2.58;1.27;;;7.00;99.90;;;;;;5030112;28;20052;-68
2023/03/17 01:32:46;;;;;;;5.35;1.77;;;7.00;99.90;;;;;;5024565;28;20033;-68
2023/03/17 01:35:12;;;;;;;2.75;1.42;;;7.10;99.90;;;;;;5012438;28;20041;-68
2023/03/17 01:37:39;;;;;;;2.83;1.35;;;7.10;99.90;;;;;;5006252;28;20029;-69
2023/03/17 01:40:14;;;;;;;3.65;1.73;;;7.10;99.90;;;;;;5030846;28;20033;-68
2023/03/17 01:42:46;;;;;;;4.05;2.13;;;7.00;99.90;;;;;;5006591;28;20030;-68
2023/03/17 01:46:08;;;;;;;2.70;1.40;;;7.00;99.90;;;;;;5012623;28;20133;-69
2023/03/17 01:49:13;;;;;;;8.50;3.13;;;7.00;99.90;;;;;;5019481;28;20026;-70
2023/03/17 01:52:13;;;;;;;8.40;3.47;;;7.00;99.90;;;;;;4980591;28;20049;-69
2023/03/17 01:55:05;;;;;;;4.25;1.88;;;7.00;99.90;;;;;;5014814;28;20044;-69
2023/03/17 01:57:43;;;;;;;5.10;2.45;;;7.00;99.90;;;;;;5004922;28;20048;-69
2023/03/17 02:00:17;;;;;;;3.33;1.60;;;7.00;99.90;;;;;;5028301;28;20029;-69
2023/03/17 02:02:49;;;;;;;3.35;1.63;;;6.80;99.90;;;;;;5022509;28;20389;-68
2023/03/17 02:05:28;;;;;;;4.30;2.13;;;6.30;99.90;;;;;;5000175;28;20038;-69
2023/03/17 02:07:55;;;;;;;1.83;1.15;;;6.20;99.90;;;;;;5002029;28;20041;-68
2023/03/17 02:10:24;;;;;;;3.28;1.60;;;6.20;99.90;;;;;;4992370;28;20030;-69
2023/03/17 02:12:58;;;;;;;2.83;1.63;;;6.20;99.90;;;;;;5007318;28;20129;-69
2023/03/17 02:15:49;;;;;;;2.58;1.60;;;6.30;99.90;;;;;;5004298;28;20797;-69
2023/03/17 02:18:19;;;;;;;4.75;2.22;;;6.20;99.90;;;;;;5000289;28;20026;-68
2023/03/17 02:20:47;;;;;;;1.67;1.05;;;6.40;99.90;;;;;;5010150;28;20037;-69
2023/03/17 02:23:23;;;;;;;1.83;1.25;;;6.30;99.90;;;;;;5005116;28;20037;-69
2023/03/17 02:25:52;;;;;;;7.68;1.65;;;6.30;99.90;;;;;;4998410;28;20033;-68
2023/03/17 02:28:24;;;;;;;4.07;1.77;;;6.20;99.90;;;;;;5006920;28;20402;-67
2023/03/17 02:30:51;;;;;;;5.68;3.17;;;6.20;99.90;;;;;;5010010;28;20042;-68
2023/03/17 02:33:17;;;;;;;10.30;2.35;;;6.20;99.90;;;;;;5005917;28;20131;-68
2023/03/17 02:35:43;;;;;;;6.93;2.55;;;6.20;99.90;;;;;;5006145;28;20065;-68
2023/03/17 02:38:09;;;;;;;7.57;2.42;;;6.20;99.90;;;;;;5006392;28;20141;-67
2023/03/17 02:40:35;;;;;;;4.18;2.67;;;6.30;99.90;;;;;;5025472;28;20045;-68
2023/03/17 02:43:03;;;;;;;6.45;2.60;;;6.20;99.90;;;;;;5023659;28;20028;-68
2023/03/17 02:45:28;;;;;;;3.78;1.90;;;6.10;99.90;;;;;;4990565;28;20030;-68
2023/03/17 02:47:56;;;;;;;5.28;2.30;;;6.10;99.90;;;;;;5023957;28;20032;-68
2023/03/17 02:50:26;;;;;;;6.57;2.05;;;6.10;99.90;;;;;;5010079;28;20034;-68
2023/03/17 02:52:52;;;;;;;6.88;2.38;;;6.10;99.90;;;;;;5012667;28;20022;-69
2023/03/17 02:55:19;;;;;;;4.68;2.53;;;6.10;99.90;;;;;;5011451;28;20057;-68
2023/03/17 02:57:44;;;;;;;6.03;3.40;;;6.10;99.90;;;;;;5005574;28;20057;-69
2023/03/17 03:00:12;;;;;;;4.50;2.10;;;6.10;99.90;;;;;;5028406;28;20076;-69
2023/03/17 03:02:38;;;;;;;7.43;3.30;;;6.00;99.90;;;;;;5021121;28;20559;-68
2023/03/17 03:05:07;;;;;;;5.93;3.20;;;5.90;99.90;;;;;;5028892;28;20025;-67
2023/03/17 03:07:33;;;;;;;3.65;2.45;;;5.80;99.90;;;;;;5001467;28;20121;-66
2023/03/17 03:09:59;;;;;;;5.80;2.58;;;5.80;99.90;;;;;;5012250;28;20028;-68
2023/03/17 03:12:25;;;;;;;4.45;2.53;;;5.70;99.90;;;;;;4986253;28;20034;-68
2023/03/17 03:14:51;;;;;;;7.13;2.92;;;5.40;99.90;;;;;;5026334;28;20065;-68
2023/03/17 03:17:16;;;;;;;4.93;2.70;;;5.30;99.90;;;;;;5001953;28;20054;-68
2023/03/17 03:19:42;;;;;;;6.13;2.50;;;5.30;99.90;;;;;;5030432;28;20382;-68
2023/03/17 03:22:08;;;;;;;5.47;2.67;;;5.20;99.90;;;;;;5020180;28;20030;-68
2023/03/17 03:24:35;;;;;;;4.20;3.05;;;5.20;99.90;;;;;;5029099;28;20041;-68
2023/03/17 03:27:01;;;;;;;5.53;2.38;;;5.20;99.90;;;;;;4984033;28;20032;-68
2023/03/17 03:29:26;;;;;;;4.75;2.95;;;5.10;99.90;;;;;;5025106;28;20112;-68
2023/03/17 03:31:52;;;;;;;5.38;2.83;;;5.10;99.90;;;;;;5022210;28;20033;-68
2023/03/17 03:34:18;;;;;;;5.30;2.83;;;5.10;99.90;;;;;;5025611;28;20027;-68
2023/03/17 03:36:44;;;;;;;3.85;2.20;;;5.10;99.90;;;;;;5023296;28;20366;-68
2023/03/17 03:39:10;;;;;;;5.95;2.10;;;5.10;99.90;;;;;;5008175;28;20625;-68
2023/03/17 03:41:36;;;;;;;4.03;2.72;;;5.10;99.90;;;;;;5024230;28;20439;-68
2023/03/17 03:44:02;;;;;;;5.20;3.22;;;5.20;99.90;;;;;;5024408;28;20026;-68
2023/03/17 03:46:28;;;;;;;6.35;3.95;;;5.20;99.90;;;;;;5025230;28;20543;-68
2023/03/17 03:48:54;;;;;;;6.43;2.75;;;5.20;99.90;;;;;;5023260;28;20029;-68
2023/03/17 03:51:20;;;;;;;5.63;2.65;;;5.20;99.90;;;;;;5008239;28;20112;-68
2023/03/17 03:53:47;;;;;;;6.60;3.03;;;5.20;99.90;;;;;;5022565;28;20436;-68
2023/03/17 03:56:13;;;;;;;4.38;2.25;;;5.10;99.90;;;;;;5008189;28;20033;-68
2023/03/17 03:58:40;;;;;;;7.07;4.15;;;5.20;99.90;;;;;;5022674;28;20033;-68
2023/03/17 04:01:08;;;;;;;8.10;2.97;;;5.10;99.90;;;;;;5008056;28;20115;-68
2023/03/17 04:03:36;;;;;;;4.85;2.92;;;5.00;99.90;;;;;;5004595;28;20030;-67
2023/03/17 04:06:02;;;;;;;4.68;2.38;;;5.00;99.90;;;;;;5007862;28;20180;-68
2023/03/17 04:08:28;;;;;;;6.40;3.42;;;4.90;99.90;;;;;;5005009;28;20495;-68
2023/03/17 04:10:54;;;;;;;7.05;2.65;;;4.90;99.90;;;;;;5008007;28;20086;-69
2023/03/17 04:13:19;;;;;;;3.72;2.28;;;4.90;99.90;;;;;;5021974;28;20075;-68
2023/03/17 04:15:45;;;;;;;8.27;3.08;;;4.90;99.90;;;;;;5020556;28;20069;-67
2023/03/17 04:18:11;;;;;;;4.68;2.13;;;4.80;99.90;;;;;;5004456;28;20056;-68
2023/03/17 04:20:37;;;;;;;4.25;2.35;;;4.80;99.90;;;;;;5025391;28;20034;-68
2023/03/17 04:23:04;;;;;;;7.97;2.78;;;4.70;99.90;;;;;;5021995;28;20373;-68
2023/03/17 04:25:30;;;;;;;5.68;2.75;;;4.70;99.90;;;;;;5025483;28;20402;-68
2023/03/17 04:27:56;;;;;;;8.73;2.60;;;4.50;99.90;;;;;;5004539;28;20025;-68
2023/03/17 04:30:21;;;;;;;2.95;2.17;;;4.30;99.90;;;;;;5025663;28;20714;-68
2023/03/17 04:32:47;;;;;;;8.52;2.60;;;4.40;99.90;;;;;;4970078;28;20480;-68
2023/03/17 04:35:24;;;;;;;8.32;3.30;;;4.30;99.90;;;;;;4999729;28;20046;-68
2023/03/17 04:37:50;;;;;;;8.07;2.70;;;4.30;99.90;;;;;;5010667;28;20481;-68
2023/03/17 04:40:18;;;;;;;3.50;2.20;;;4.20;99.90;;;;;;5010076;28;20045;-67
2023/03/17 04:42:44;;;;;;;4.68;2.60;;;4.20;99.90;;;;;;5021278;28;20026;-67
2023/03/17 04:45:16;;;;;;;9.75;3.72;;;4.20;99.90;;;;;;5026981;28;20571;-68
2023/03/17 04:47:44;;;;;;;6.53;2.45;;;4.00;99.90;;;;;;4990660;28;20026;-67
2023/03/17 04:50:10;;;;;;;5.90;2.35;;;4.10;99.90;;;;;;5009381;28;20413;-68
2023/03/17 04:52:36;;;;;;;5.03;2.67;;;4.00;99.90;;;;;;4984594;28;20124;-68
2023/03/17 04:55:04;;;;;;;9.27;3.60;;;4.00;99.90;;;;;;4980978;28;20115;-68
2023/03/17 04:57:32;;;;;;;3.35;2.33;;;4.00;99.90;;;;;;4984756;28;20030;-67
2023/03/17 04:59:57;;;;;;;9.32;2.95;;;3.90;99.90;;;;;;4992883;28;20030;-70
2023/03/17 05:02:23;;;;;;;5.00;3.30;;;4.00;99.90;;;;;;5018462;28;20026;-69
2023/03/17 05:04:49;;;;;;;11.52;2.85;;;3.80;99.90;;;;;;5030080;28;20484;-68
2023/03/17 05:07:14;;;;;;;5.25;2.33;;;3.80;99.90;;;;;;5017904;28;20034;-68
2023/03/17 05:09:41;;;;;;;4.53;2.92;;;3.80;99.90;;;;;;5028743;28;20029;-68
2023/03/17 05:12:08;;;;;;;4.35;2.88;;;3.80;99.90;;;;;;5020762;28;20443;-69
2023/03/17 05:14:35;;;;;;;6.10;3.15;;;3.80;99.90;;;;;;5010413;28;20030;-69
2023/03/17 05:17:01;;;;;;;7.78;3.08;;;3.90;99.90;;;;;;4996031;28;20026;-67
2023/03/17 05:19:27;;;;;;;6.38;2.65;;;3.90;99.90;;;;;;5009623;28;20028;-68
2023/03/17 05:21:52;;;;;;;3.67;2.95;;;4.00;99.90;;;;;;5001631;28;20026;-68
2023/03/17 05:24:18;;;;;;;8.63;3.08;;;3.90;99.90;;;;;;5025656;28;20036;-68
2023/03/17 05:26:44;;;;;;;7.63;2.97;;;3.80;99.90;;;;;;5025810;28;20408;-68
2023/03/17 05:29:10;;;;;;;8.95;3.05;;;3.90;99.90;;;;;;5027911;28;20033;-68
2023/03/17 05:31:36;;;;;;;8.95;3.25;;;3.80;99.90;;;;;;5026781;28;20121;-68
2023/03/17 05:34:03;;;;;;;12.32;3.42;;;3.80;99.90;;;;;;5009244;28;20072;-68
2023/03/17 05:36:28;;;;;;;6.55;4.03;;;3.80;99.90;;;;;;5006556;28;20030;-68
2023/03/17 05:38:55;;;;;;;7.53;3.05;;;3.80;99.90;;;;;;5024663;28;20029;-68
2023/03/17 05:41:21;;;;;;;24.17;11.07;;;3.70;99.90;;;;;;5027896;28;20025;-68
2023/03/17 05:43:47;;;;;;;13.02;5.78;;;3.70;99.90;;;;;;5023748;28;20106;-68
2023/03/17 05:46:13;;;;;;;5.43;3.50;;;3.80;99.90;;;;;;4991439;28;20656;-68
2023/03/17 05:48:40;;;;;;;10.38;4.38;;;3.80;99.90;;;;;;4987600;28;20121;-67
2023/03/17 05:51:06;;;;;;;5.07;2.58;;;3.80;99.90;;;;;;4996415;28;20040;-66
2023/03/17 05:53:32;;;;;;;5.85;3.17;;;3.80;99.90;;;;;;5024701;28;20033;-66
2023/03/17 05:55:58;;;;;;;7.45;3.38;;;3.80;99.90;;;;;;5010124;28;20108;-67
2023/03/17 05:58:24;;;;;;;7.13;3.15;;;3.90;99.90;;;;;;5024772;28;20389;-66
2023/03/17 06:00:50;;;;;;;4.45;3.35;;;3.90;99.90;;;;;;5023914;28;20088;-68
2023/03/17 06:03:16;;;;;;;3.90;2.55;;;4.00;99.90;;;;;;5006556;28;20037;-67
2023/03/17 06:05:42;;;;;;;4.97;2.88;;;4.00;99.90;;;;;;5019152;28;20394;-68
2023/03/17 06:08:08;;;;;;;8.05;3.15;;;4.10;99.90;;;;;;5010882;28;20026;-66
2023/03/17 06:10:34;;;;;;;8.13;3.60;;;4.00;99.90;;;;;;5023126;28;20041;-65
2023/03/17 06:13:01;;;;;;;7.80;3.03;;;4.00;99.90;;;;;;5024217;28;20029;-65
2023/03/17 06:15:27;;;;;;;6.22;2.17;;;4.00;99.90;;;;;;5022386;28;20034;-65
2023/03/17 06:17:53;;;;;;;6.90;4.05;;;4.00;99.90;;;;;;5024359;28;20029;-65
2023/03/17 06:20:19;;;;;;;5.40;2.55;;;4.00;99.90;;;;;;4994690;28;20030;-65
2023/03/17 06:22:45;;;;;;;7.53;3.47;;;4.00;99.90;;;;;;5020948;28;20026;-66
2023/03/17 06:25:11;;;;;;;7.32;3.95;;;4.00;99.90;;;;;;5010156;28;20048;-66
2023/03/17 06:27:37;;;;;;;9.40;4.18;;;4.00;99.90;;;;;;5003120;28;20050;-66
2023/03/17 06:30:07;;;;;;;5.85;2.88;;;4.00;99.90;;;;;;5012252;28;20033;-67
2023/03/17 06:32:34;;;;;;;5.57;2.92;;;4.00;99.90;;;;;;5021817;28;20124;-66
2023/03/17 06:35:00;;;;;;;6.32;2.92;;;4.10;99.90;;;;;;5012398;28;20065;-66
2023/03/17 06:37:26;;;;;;;8.38;3.80;;;4.00;99.90;;;;;;4999782;28;20022;-66
2023/03/17 06:39:52;;;;;;;11.10;3.22;;;4.00;99.90;;;;;;4997130;28;20036;-66
2023/03/17 06:42:18;;;;;;;12.88;3.15;;;4.00;99.90;;;;;;5020438;28;20030;-68
2023/03/17 06:44:44;;;;;;;14.80;4.78;;;4.10;99.90;;;;;;5031173;28;20029;-68
2023/03/17 06:47:10;;;;;;;32.35;5.50;;;4.20;99.90;;;;;;5022665;28;20025;-66
2023/03/17 06:49:36;;;;;;;5.38;3.28;;;4.20;99.90;;;;;;5012274;28;20121;-66
2023/03/17 06:52:02;;;;;;;4.28;2.55;;;4.30;99.90;;;;;;5018256;28;20453;-66
2023/03/17 06:54:28;;;;;;;5.97;3.53;;;4.40;99.90;;;;;;5012864;28;20071;-65
2023/03/17 06:56:54;;;;;;;9.52;3.10;;;4.60;99.90;;;;;;5005185;28;20041;-66
2023/03/17 06:59:21;;;;;;;9.02;3.15;;;4.70;99.90;;;;;;5028041;28;20104;-66
2023/03/17 07:01:48;;;;;;;5.03;3.17;;;4.80;99.90;;;;;;5018766;28;20025;-66
2023/03/17 07:04:15;;;;;;;6.78;3.63;;;4.90;99.90;;;;;;5016650;28;20022;-66
2023/03/17 07:06:41;;;;;;;7.35;3.10;;;5.00;99.90;;;;;;5014916;28;20115;-66
2023/03/17 07:09:08;;;;;;;9.18;4.10;;;5.00;99.90;;;;;;5017751;28;20057;-67
2023/03/17 07:11:34;;;;;;;8.43;4.15;;;5.10;99.90;;;;;;5015891;28;20052;-66
2023/03/17 07:14:01;;;;;;;5.40;2.83;;;5.20;99.90;;;;;;5006109;28;20038;-66
2023/03/17 07:16:28;;;;;;;7.07;3.95;;;5.40;99.90;;;;;;5005781;28;20035;-66
2023/03/17 07:18:54;;;;;;;2.95;2.22;;;5.50;99.90;;;;;;4990934;28;20025;-66
2023/03/17 07:21:20;;;;;;;9.57;3.35;;;5.60;99.90;;;;;;4989112;28;20042;-66
2023/03/17 07:23:46;;;;;;;6.97;3.47;;;5.70;99.90;;;;;;4992509;28;20521;-66
2023/03/17 07:26:12;;;;;;;6.18;3.03;;;5.80;99.90;;;;;;5007239;28;20402;-66
2023/03/17 07:28:39;;;;;;;5.30;3.05;;;5.90;99.90;;;;;;5009352;28;20103;-67
2023/03/17 07:31:07;;;;;;;8.52;2.60;;;6.00;99.90;;;;;;5006587;28;20061;-67
2023/03/17 07:33:33;;;;;;;6.63;3.40;;;6.10;99.90;;;;;;4991085;28;20054;-67
2023/03/17 07:36:00;;;;;;;4.80;2.60;;;6.20;99.90;;;;;;4989862;28;20037;-66
2023/03/17 07:38:26;;;;;;;18.40;5.03;;;6.40;99.90;;;;;;4989990;28;20052;-68
2023/03/17 07:40:52;;;;;;;6.40;3.35;;;6.40;99.90;;;;;;5007021;28;20029;-67
2023/03/17 07:43:18;;;;;;;8.05;3.17;;;6.50;99.90;;;;;;5007649;28;20528;-67
2023/03/17 07:45:45;;;;;;;6.13;2.78;;;6.50;99.90;;;;;;5004544;28;20102;-66
2023/03/17 07:48:11;;;;;;;5.15;2.40;;;6.60;99.90;;;;;;5004824;28;20052;-67
2023/03/17 07:50:37;;;;;;;13.93;2.90;;;6.80;99.90;;;;;;4987418;28;20549;-68
2023/03/17 07:53:03;;;;;;;5.07;2.60;;;6.90;99.90;;;;;;4992605;28;20026;-66
2023/03/17 07:55:31;;;;;;;3.78;2.03;;;7.00;99.90;;;;;;5002534;28;20423;-66
2023/03/17 07:57:57;;;;;;;5.65;2.67;;;7.10;99.90;;;;;;5003145;28;20032;-66
2023/03/17 08:00:23;;;;;;;9.40;3.85;;;7.20;99.90;;;;;;5010610;28;20026;-67
2023/03/17 08:02:50;;;;;;;4.68;2.40;;;7.30;99.90;;;;;;4988780;28;20021;-68
2023/03/17 08:05:16;;;;;;;5.28;2.33;;;7.30;99.90;;;;;;5006640;28;20038;-67
2023/03/17 08:07:42;;;;;;;6.43;2.53;;;7.30;99.90;;;;;;5002968;28;20041;-67
2023/03/17 08:10:12;;;;;;;7.88;3.13;;;7.40;99.90;;;;;;5027525;28;20068;-67
2023/03/17 08:12:39;;;;;;;7.22;3.08;;;7.40;99.90;;;;;;5020810;28;20525;-66
2023/03/17 08:15:06;;;;;;;12.63;3.60;;;7.60;99.90;;;;;;5009464;28;20060;-66
2023/03/17 08:17:34;;;;;;;4.25;2.40;;;7.70;99.90;;;;;;5020545;28;20025;-66
2023/03/17 08:19:59;;;;;;;7.28;3.22;;;7.70;99.90;;;;;;4992931;28;20021;-66
2023/03/17 08:22:26;;;;;;;13.60;3.65;;;7.70;99.90;;;;;;4998244;28;20084;-67
2023/03/17 08:24:52;;;;;;;4.88;2.65;;;7.70;99.90;;;;;;5030068;28;20064;-66
2023/03/17 08:27:20;;;;;;;5.20;3.33;;;7.80;99.90;;;;;;5001304;28;20057;-67
2023/03/17 08:29:46;;;;;;;11.02;3.67;;;7.90;99.90;;;;;;5012689;28;20128;-68
2023/03/17 08:32:12;;;;;;;8.07;3.67;;;8.10;99.90;;;;;;5019169;28;20057;-66
2023/03/17 08:34:38;;;;;;;9.35;3.42;;;8.00;99.90;;;;;;5028793;28;20511;-66
2023/03/17 08:37:05;;;;;;;8.73;4.22;;;8.00;99.90;;;;;;4998412;28;20072;-66
2023/03/17 08:39:31;;;;;;;9.93;3.33;;;8.30;99.90;;;;;;5027940;28;20428;-66
2023/03/17 08:41:56;;;;;;;9.38;3.72;;;8.50;99.90;;;;;;5020638;28;20025;-67
2023/03/17 08:44:22;;;;;;;14.50;3.90;;;8.60;99.90;;;;;;5026663;28;20033;-66
2023/03/17 08:46:49;;;;;;;8.63;3.72;;;8.50;99.90;;;;;;5021083;28;20029;-66
2023/03/17 08:49:15;;;;;;;11.73;3.33;;;8.80;99.90;;;;;;4997954;28;20033;-67
2023/03/17 08:51:43;;;;;;;6.57;3.70;;;9.00;99.90;;;;;;5014161;28;20017;-66
2023/03/17 08:54:10;;;;;;;8.80;3.42;;;9.10;99.90;;;;;;5012931;28;20029;-66
2023/03/17 08:56:38;;;;;;;15.23;3.63;;;9.40;99.90;;;;;;5017916;28;20033;-67
2023/03/17 08:59:05;;;;;;;7.85;2.95;;;9.50;99.90;;;;;;5024364;28;20025;-67
2023/03/17 09:01:33;;;;;;;7.47;3.28;;;9.80;99.90;;;;;;5009642;28;20025;-66
2023/03/17 09:04:00;;;;;;;8.88;3.33;;;10.00;99.90;;;;;;5002921;28;20076;-66
2023/03/17 09:06:26;;;;;;;5.35;2.97;;;10.30;99.90;;;;;;5011128;28;20034;-67
2023/03/17 09:08:55;;;;;;;10.63;3.03;;;10.50;99.90;;;;;;5009043;28;20033;-66
2023/03/17 09:11:25;;;;;;;7.78;2.33;;;10.60;99.90;;;;;;4991583;28;20067;-66
2023/03/17 09:13:51;;;;;;;13.40;2.60;;;10.70;99.90;;;;;;5017693;28;20393;-66
2023/03/17 09:16:17;;;;;;;8.65;3.05;;;11.00;99.90;;;;;;4991923;28;20033;-67
2023/03/17 09:18:45;;;;;;;5.43;3.13;;;11.20;99.90;;;;;;5004721;28;20033;-67
2023/03/17 09:21:13;;;;;;;3.78;2.58;;;11.20;99.90;;;;;;5002480;28;20072;-66
2023/03/17 09:23:39;;;;;;;4.97;2.72;;;11.20;99.90;;;;;;5007568;28;20052;-66
2023/03/17 09:26:06;;;;;;;6.72;2.80;;;11.30;99.90;;;;;;5028693;28;20437;-66
2023/03/17 09:28:32;;;;;;;4.85;2.30;;;11.20;99.90;;;;;;5025680;28;20095;-66
2023/03/17 09:31:00;;;;;;;9.35;2.70;;;11.30;99.90;;;;;;5011277;28;20025;-66
2023/03/17 09:33:26;;;;;;;6.18;3.08;;;11.50;99.90;;;;;;5025098;28;20061;-67
2023/03/17 09:35:53;;;;;;;4.25;2.30;;;11.70;99.90;;;;;;5007110;28;20026;-67
2023/03/17 09:38:18;;;;;;;2.60;1.13;;;12.00;98.80;;;;;;5024950;28;20038;-67
2023/03/17 09:40:52;;;;;;;4.45;2.45;;;12.10;98.80;;;;;;5028448;28;20184;-67
2023/03/17 09:44:09;;;;;;;4.97;1.95;;;12.20;98.30;;;;;;5008430;28;20064;-67
2023/03/17 09:47:17;;;;;;;9.15;1.85;;;12.20;98.50;;;;;;4928348;29;20035;-67
2023/03/17 09:49:54;;;;;;;4.53;1.80;;;12.40;97.60;;;;;;5014663;28;20054;-67
2023/03/17 09:52:33;;;;;;;4.82;1.90;;;12.60;97.40;;;;;;5001738;28;20394;-67
2023/03/17 09:55:02;;;;;;;3.42;1.70;;;12.60;96.30;;;;;;4977302;28;20062;-67
2023/03/17 09:57:35;;;;;;;4.10;2.03;;;12.80;95.90;;;;;;5004452;28;20521;-67
2023/03/17 10:00:17;;;;;;;2.83;1.58;;;13.00;96.20;;;;;;5031016;28;20381;-67
2023/03/17 10:02:44;;;;;;;3.95;1.73;;;13.30;97.00;;;;;;5007672;28;20069;-68
2023/03/17 10:05:26;;;;;;;3.78;1.60;;;13.20;95.90;;;;;;5012234;28;20508;-67
2023/03/17 10:08:29;;;;;;;4.22;1.90;;;13.30;96.70;;;;;;5013609;28;20088;-67
2023/03/17 10:11:22;;;;;;;4.63;1.40;;;13.60;96.70;;;;;;5000020;28;20043;-67
2023/03/17 10:14:07;;;;;;;3.53;1.88;;;13.60;97.00;;;;;;5006951;28;20104;-67
2023/03/17 10:16:53;;;;;;;2.60;1.27;;;13.70;93.60;;;;;;5006996;28;20109;-67
2023/03/17 10:19:34;;;;;;;1.48;1.05;;;13.90;95.20;;;;;;5000618;28;20085;-67
2023/03/17 10:22:20;;;;;;;8.18;2.20;;;14.00;93.90;;;;;;5020816;28;20485;-67
2023/03/17 10:24:53;;;;;;;3.28;1.80;;;14.10;93.80;;;;;;5032066;28;20026;-67
2023/03/17 10:27:20;;;;;;;3.85;1.95;;;14.20;93.00;;;;;;5003636;28;20113;-67
2023/03/17 10:29:46;;;;;;;3.70;1.40;;;14.30;93.70;;;;;;5014762;28;20108;-67
2023/03/17 10:32:13;;;;;;;14.88;2.67;;;14.50;93.90;;;;;;5020678;28;20457;-67
2023/03/17 10:34:41;;;;;;;3.63;1.77;;;14.60;92.60;;;;;;5013386;28;20052;-67
2023/03/17 10:37:22;;;;;;;4.93;1.65;;;15.00;91.10;;;;;;5003715;28;20113;-67
2023/03/17 10:39:55;;;;;;;6.55;1.67;;;15.20;90.30;;;;;;5015014;28;20080;-67
2023/03/17 10:42:28;;;;;;;3.17;1.70;;;15.20;89.90;;;;;;4999873;28;20398;-68
2023/03/17 10:45:26;;;;;;;5.72;2.28;;;15.20;89.70;;;;;;4975769;28;20037;-67
2023/03/17 10:47:56;;;;;;;10.60;3.15;;;15.10;89.10;;;;;;5012941;28;20739;-68
2023/03/17 10:50:31;;;;;;;7.38;1.40;;;15.30;90.80;;;;;;4994486;28;20118;-63
2023/03/17 10:53:02;;;;;;;4.05;1.58;;;15.70;89.90;;;;;;5012281;28;20025;-62
2023/03/17 10:55:37;;;;;;;4.05;1.73;;;15.50;87.50;;;;;;5003989;28;20103;-62
2023/03/17 10:58:14;;;;;;;4.97;2.05;;;15.80;89.70;;;;;;4993546;28;20529;-63
2023/03/17 11:01:02;;;;;;;3.05;1.60;;;15.90;89.10;;;;;;5024321;28;20033;-63
2023/03/17 11:03:34;;;;;;;5.20;2.17;;;15.40;87.70;;;;;;5000355;28;20025;-66
2023/03/17 11:06:17;;;;;;;4.18;1.80;;;15.20;90.00;;;;;;4999460;28;20041;-66
2023/03/17 11:08:54;;;;;;;4.63;1.48;;;15.50;89.80;;;;;;4990081;28;20032;-67
2023/03/17 11:11:27;;;;;;;4.60;1.67;;;15.90;86.60;;;;;;4992842;28;20033;-70
2023/03/17 11:14:03;;;;;;;6.13;1.52;;;15.90;86.10;;;;;;5006245;28;20072;-67
2023/03/17 11:16:35;;;;;;;3.75;1.90;;;15.90;85.60;;;;;;4990293;28;20034;-67
2023/03/17 11:19:02;;;;;;;5.88;1.70;;;15.80;87.30;;;;;;4986178;28;20023;-66
2023/03/17 11:22:03;;;;;;;8.27;2.72;;;15.90;89.90;;;;;;4976307;28;20040;-66
2023/03/17 11:24:32;;;;;;;4.88;1.48;;;15.90;88.70;;;;;;4962962;28;20038;-66
2023/03/17 11:27:29;;;;;;;3.28;1.42;;;15.90;84.50;;;;;;4989298;28;20064;-67
2023/03/17 11:30:33;;;;;;;6.53;1.85;;;16.40;85.20;;;;;;5002402;28;20030;-67
2023/03/17 11:33:25;;;;;;;6.57;1.80;;;16.00;83.70;;;;;;5004893;28;20029;-67
2023/03/17 11:36:22;;;;;;;3.40;1.65;;;16.00;85.90;;;;;;4992359;28;20401;-67
2023/03/17 11:39:16;;;;;;;4.97;2.08;;;16.40;86.60;;;;;;4990158;28;20022;-67
2023/03/17 11:41:54;;;;;;;2.92;1.17;;;16.40;84.90;;;;;;4993610;28;20110;-67
2023/03/17 11:44:39;;;;;;;2.92;1.25;;;16.50;85.60;;;;;;4985633;28;20026;-67
2023/03/17 11:47:22;;;;;;;2.58;1.13;;;16.80;83.80;;;;;;4989450;28;20050;-68
2023/03/17 11:50:15;;;;;;;3.92;2.03;;;16.90;81.50;;;;;;4987779;28;20030;-67
2023/03/17 11:53:29;;;;;;;3.83;1.80;;;16.70;82.60;;;;;;4996406;28;20600;-66
2023/03/17 11:56:18;;;;;;;2.20;1.00;;;17.80;81.00;;;;;;5011729;28;20034;-67
2023/03/17 11:58:54;;;;;;;3.10;1.55;;;18.70;80.10;;;;;;5005343;28;20029;-68
2023/03/17 12:01:34;;;;;;;1.92;1.15;;;19.00;77.40;;;;;;5008823;28;20038;-69
2023/03/17 12:04:52;;;;;;;3.80;1.53;;;18.50;76.50;;;;;;5006206;28;20108;-67
2023/03/17 12:07:50;;;;;;;4.47;1.85;;;17.70;79.60;;;;;;4945654;29;20487;-73
2023/03/17 12:10:49;;;;;;;12.27;2.85;;;18.00;80.00;;;;;;4931085;29;20055;-68
2023/03/17 12:13:28;;;;;;;21.10;2.67;;;17.90;79.70;;;;;;5014163;28;20038;-68
2023/03/17 12:16:09;;;;;;;5.45;1.58;;;17.80;79.20;;;;;;4993935;28;20036;-69
2023/03/17 12:19:07;;;;;;;3.00;1.48;;;17.30;82.90;;;;;;5000920;28;20030;-70
2023/03/17 12:21:51;;;;;;;5.20;2.17;;;17.70;80.80;;;;;;4981439;28;20045;-71
2023/03/17 12:24:44;;;;;;;7.75;1.67;;;17.10;82.80;;;;;;5009025;28;20068;-68
2023/03/17 12:27:28;;;;;;;6.18;1.75;;;16.90;83.00;;;;;;5002539;28;20026;-69
2023/03/17 12:30:06;;;;;;;3.50;1.70;;;16.80;84.60;;;;;;4974865;28;20034;-69
2023/03/17 12:32:42;;;;;;;3.10;1.55;;;16.80;84.70;;;;;;5000289;28;20041;-69
2023/03/17 12:35:31;;;;;;;3.33;1.40;;;16.80;86.40;;;;;;5027291;28;20040;-70
2023/03/17 12:38:01;;;;;;;3.83;1.40;;;16.90;85.40;;;;;;5010560;28;20034;-70
2023/03/17 12:40:35;;;;;;;4.25;1.73;;;17.20;84.90;;;;;;4990318;28;20505;-72
2023/03/17 12:43:31;;;;;;;4.32;1.40;;;16.80;85.20;;;;;;5004828;28;20026;-70
2023/03/17 12:46:31;;;;;;;6.93;1.98;;;16.80;87.00;;;;;;5007243;28;20412;-70
2023/03/17 12:49:03;;;;;;;3.97;1.42;;;16.80;86.40;;;;;;5015939;28;20037;-69
2023/03/17 12:52:09;;;;;;;6.40;1.60;;;16.80;87.80;;;;;;5017414;28;20033;-68
2023/03/17 12:54:38;;;;;;;3.88;1.63;;;17.20;87.90;;;;;;5027782;28;20044;-69
2023/03/17 12:57:40;;;;;;;4.07;1.58;;;17.30;86.20;;;;;;5019501;28;20137;-69
2023/03/17 13:00:19;;;;;;;4.15;1.58;;;17.00;85.70;;;;;;4965760;28;20038;-69
2023/03/17 13:03:06;;;;;;;10.43;1.67;;;17.10;86.50;;;;;;5004303;28;20037;-69
2023/03/17 13:05:32;;;;;;;15.80;2.60;;;16.90;88.00;;;;;;5011395;28;20493;-69
2023/03/17 13:08:02;;;;;;;4.20;1.58;;;16.90;89.00;;;;;;4995674;28;20030;-70
2023/03/17 13:10:49;;;;;;;10.98;2.08;;;17.00;88.60;;;;;;4990128;28;20041;-68
2023/03/17 13:13:43;;;;;;;7.25;1.55;;;17.20;88.60;;;;;;5005139;28;20209;-69
2023/03/17 13:16:47;;;;;;;3.58;1.73;;;17.30;86.60;;;;;;5005362;28;20029;-70